createdAt,value
2023-03-16T00:01:27.724Z,11.10
2023-03-16T00:03:55.480Z,13.10
2023-03-16T00:06:25.513Z,11.60
2023-03-16T00:08:58.584Z,11.30
2023-03-16T00:11:26.344Z,13.30
2023-03-16T00:13:54.010Z,13.80
2023-03-16T00:16:22.214Z,11.60
2023-03-16T00:18:49.607Z,15.00
2023-03-16T00:21:16.887Z,10.10
2023-03-16T00:23:47.118Z,12.80
2023-03-16T00:26:20.942Z,13.20
2023-03-16T00:28:55.917Z,12.30
2023-03-16T00:31:36.217Z,11.70
2023-03-16T00:34:08.139Z,13.00
2023-03-16T00:43:55.092Z,10.50
2023-03-16T00:46:36.265Z,9.30
2023-03-16T00:49:14.169Z,10.20
2023-03-16T00:51:49.507Z,14.20
2023-03-16T00:54:57.052Z,10.10
2023-03-16T01:01:16.476Z,9.30
2023-03-16T01:03:54.208Z,10.80
2023-03-16T01:06:38.328Z,9.50
2023-03-16T01:09:36.637Z,10.30
2023-03-16T01:12:37.054Z,9.20
2023-03-16T01:15:11.679Z,10.00
2023-03-16T01:17:59.616Z,8.30
2023-03-16T01:20:42.743Z,13.70
2023-03-16T01:23:22.605Z,10.90
2023-03-16T01:26:27.320Z,12.20
2023-03-16T01:29:09.627Z,10.00
2023-03-16T01:31:57.354Z,8.50
2023-03-16T01:34:41.583Z,13.70
2023-03-16T01:37:20.419Z,10.90
2023-03-16T01:40:22.365Z,8.20
2023-03-16T01:43:06.354Z,13.90
2023-03-16T01:46:04.545Z,9.50
2023-03-16T01:48:38.224Z,8.40
2023-03-16T01:51:13.942Z,8.60
2023-03-16T01:53:44.600Z,10.00
2023-03-16T01:56:13.792Z,8.40
2023-03-16T01:58:43.705Z,9.00
2023-03-16T02:01:21.750Z,10.80
2023-03-16T02:03:49.472Z,6.30
2023-03-16T02:06:23.116Z,9.80
2023-03-16T02:08:55.436Z,6.40
2023-03-16T02:11:23.799Z,5.60
2023-03-16T02:14:14.158Z,7.40
2023-03-16T02:16:42.808Z,8.60
2023-03-16T02:19:18.654Z,9.30
2023-03-16T02:22:04.623Z,6.50
2023-03-16T02:24:32.703Z,8.10
2023-03-16T02:27:09.504Z,7.50
2023-03-16T02:29:47.131Z,7.40
2023-03-16T02:32:15.375Z,4.60
2023-03-16T02:34:42.797Z,5.40
2023-03-16T02:37:11.702Z,7.20
2023-03-16T02:39:39.452Z,6.40
2023-03-16T02:42:10.627Z,8.40
2023-03-16T02:44:40.413Z,9.10
2023-03-16T02:47:36.512Z,8.40
2023-03-16T02:50:12.114Z,6.10
2023-03-16T02:52:40.803Z,7.10
2023-03-16T02:55:09.044Z,5.80
2023-03-16T02:57:36.438Z,7.60
2023-03-16T03:00:13.825Z,6.60
2023-03-16T03:02:42.917Z,8.00
2023-03-16T03:05:13.322Z,8.80
2023-03-16T03:07:42.920Z,6.20
2023-03-16T03:10:11.225Z,4.80
2023-03-16T03:12:38.485Z,10.20
2023-03-16T03:15:08.498Z,6.00
2023-03-16T03:17:42.609Z,4.80
2023-03-16T03:20:16.202Z,8.50
2023-03-16T03:22:47.376Z,8.20
2023-03-16T03:25:15.820Z,6.60
2023-03-16T03:27:43.545Z,9.80
2023-03-16T03:30:13.637Z,6.80
2023-03-16T03:32:41.535Z,6.70
2023-03-16T03:35:12.084Z,7.90
2023-03-16T03:37:40.695Z,6.10
2023-03-16T03:40:13.465Z,5.90
2023-03-16T03:42:42.258Z,8.60
2023-03-16T03:45:13.905Z,7.20
2023-03-16T03:47:44.878Z,6.80
2023-03-16T03:50:17.414Z,9.80
2023-03-16T03:52:54.075Z,4.90
2023-03-16T03:55:22.872Z,8.40
2023-03-16T03:57:52.120Z,4.90
2023-03-16T04:00:20.678Z,9.90
2023-03-16T04:02:51.172Z,6.20
2023-03-16T04:05:27.186Z,7.70
2023-03-16T04:07:57.053Z,8.90
2023-03-16T04:10:29.095Z,11.90
2023-03-16T04:12:58.754Z,7.40
2023-03-16T04:15:27.207Z,6.20
2023-03-16T04:18:05.479Z,5.40
2023-03-16T04:20:43.237Z,5.30
2023-03-16T04:23:15.096Z,6.70
2023-03-16T04:25:52.722Z,5.40
2023-03-16T04:32:01.426Z,4.00
2023-03-16T04:34:33.726Z,4.50
2023-03-16T04:37:03.503Z,4.30
2023-03-16T04:39:31.012Z,5.20
2023-03-16T04:41:57.701Z,4.50
2023-03-16T04:44:31.657Z,11.60
2023-03-16T04:47:22.664Z,6.20
2023-03-16T04:49:55.214Z,8.50
2023-03-16T04:52:31.092Z,7.00
2023-03-16T04:55:00.536Z,9.40
2023-03-16T04:57:38.722Z,7.30
2023-03-16T05:00:14.712Z,5.30
2023-03-16T05:02:47.820Z,8.30
2023-03-16T05:05:14.770Z,7.20
2023-03-16T05:07:44.315Z,7.20
2023-03-16T05:10:21.474Z,4.80
2023-03-16T05:13:12.063Z,4.00
2023-03-16T05:15:41.914Z,9.70
2023-03-16T05:18:34.564Z,7.30
2023-03-16T05:21:01.245Z,7.20
2023-03-16T05:23:34.243Z,7.60
2023-03-16T05:26:02.944Z,3.40
2023-03-16T05:28:33.178Z,8.60
2023-03-16T05:31:03.211Z,21.40
2023-03-16T05:33:37.113Z,16.90
2023-03-16T05:36:07.152Z,12.20
2023-03-16T05:38:36.192Z,10.00
2023-03-16T05:41:06.075Z,9.70
2023-03-16T05:44:05.503Z,11.30
2023-03-16T05:46:55.032Z,10.20
2023-03-16T05:49:21.817Z,10.60
2023-03-16T05:51:51.675Z,12.10
2023-03-16T05:54:18.607Z,15.70
2023-03-16T05:56:51.241Z,8.70
2023-03-16T05:59:23.010Z,8.00
2023-03-16T06:01:56.116Z,11.10
2023-03-16T06:04:22.887Z,7.10
2023-03-16T06:06:49.788Z,15.50
2023-03-16T06:09:20.314Z,13.80
2023-03-16T06:11:46.947Z,15.50
2023-03-16T06:14:17.439Z,16.20
2023-03-16T06:16:44.241Z,13.80
2023-03-16T06:19:10.827Z,11.40
2023-03-16T06:21:37.404Z,27.40
2023-03-16T06:24:08.848Z,38.40
2023-03-16T06:26:37.864Z,39.40
2023-03-16T06:29:06.427Z,35.90
2023-03-16T06:31:34.548Z,44.30
2023-03-16T06:34:01.869Z,28.10
2023-03-16T06:36:28.519Z,33.90
2023-03-16T06:38:57.180Z,49.40
2023-03-16T06:43:54.352Z,36.10
2023-03-16T06:46:20.907Z,35.10
2023-03-16T06:48:47.596Z,17.50
2023-03-16T06:51:16.684Z,24.70
2023-03-16T06:53:44.995Z,20.30
2023-03-16T06:56:11.486Z,20.50
2023-03-16T06:58:39.736Z,15.40
2023-03-16T07:01:06.636Z,19.50
2023-03-16T07:03:33.139Z,15.80
2023-03-16T07:06:23.430Z,11.30
2023-03-16T07:08:52.928Z,11.10
2023-03-16T07:11:20.166Z,10.30
2023-03-16T07:13:47.267Z,13.10
2023-03-16T07:16:15.481Z,8.50
2023-03-16T07:18:43.853Z,5.50
2023-03-16T07:21:19.194Z,7.80
2023-03-16T07:23:51.988Z,9.10
2023-03-16T07:26:23.711Z,7.40
2023-03-16T07:28:56.248Z,6.30
2023-03-16T07:31:25.630Z,10.20
2023-03-16T07:33:53.548Z,9.20
2023-03-16T07:36:28.521Z,8.40
2023-03-16T07:38:57.782Z,12.80
2023-03-16T07:41:24.945Z,10.40
2023-03-16T07:43:52.810Z,9.30
2023-03-16T07:46:24.310Z,4.50
2023-03-16T07:48:51.713Z,6.60
2023-03-16T07:51:20.706Z,6.30
2023-03-16T07:53:49.282Z,6.60
2023-03-16T07:56:29.691Z,9.40
2023-03-16T07:59:01.580Z,7.30
2023-03-16T08:01:29.196Z,7.90
2023-03-16T08:04:01.981Z,8.30
2023-03-16T08:06:29.626Z,4.80
2023-03-16T08:08:58.512Z,5.90
2023-03-16T08:11:32.885Z,7.70
2023-03-16T08:14:03.656Z,6.40
2023-03-16T08:16:50.981Z,6.70
2023-03-16T08:19:19.777Z,6.80
2023-03-16T08:22:00.771Z,8.10
2023-03-16T08:24:31.737Z,7.60
2023-03-16T08:29:40.143Z,9.20
2023-03-16T08:32:08.606Z,4.20
2023-03-16T08:34:41.587Z,3.50
2023-03-16T08:37:09.499Z,4.60
2023-03-16T08:39:45.421Z,6.20
2023-03-16T08:42:17.685Z,7.00
2023-03-16T08:44:48.128Z,8.10
2023-03-16T08:47:16.285Z,8.50
2023-03-16T08:49:44.148Z,5.30
2023-03-16T08:52:14.743Z,6.10
2023-03-16T08:54:47.115Z,7.00
2023-03-16T08:57:20.746Z,9.10
2023-03-16T08:59:47.976Z,8.70
2023-03-16T09:02:15.793Z,6.10
2023-03-16T09:04:43.342Z,6.60
2023-03-16T09:07:12.432Z,4.40
2023-03-16T09:09:41.540Z,7.10
2023-03-16T09:12:08.919Z,5.40
2023-03-16T09:14:37.768Z,6.30
2023-03-16T09:17:07.079Z,8.40
2023-03-16T09:19:50.024Z,5.40
2023-03-16T09:22:21.333Z,12.40
2023-03-16T09:24:49.148Z,8.60
2023-03-16T09:27:16.877Z,8.30
2023-03-16T09:29:46.154Z,7.00
2023-03-16T09:32:13.814Z,6.40
2023-03-16T09:34:44.054Z,5.70
2023-03-16T09:37:11.809Z,8.50
2023-03-16T09:39:39.756Z,8.70
2023-03-16T09:42:08.758Z,5.10
2023-03-16T09:44:42.418Z,4.60
2023-03-16T09:47:11.404Z,8.10
2023-03-16T09:49:46.901Z,7.10
2023-03-16T09:52:20.888Z,4.50
2023-03-16T09:54:55.332Z,5.90
2023-03-16T09:57:28.288Z,7.70
2023-03-16T09:59:57.217Z,4.70
2023-03-16T10:02:30.926Z,3.20
2023-03-16T10:05:09.119Z,3.80
2023-03-16T10:07:37.495Z,5.30
2023-03-16T10:10:10.681Z,5.90
2023-03-16T10:12:41.333Z,5.60
2023-03-16T10:15:13.934Z,12.40
2023-03-16T10:17:50.760Z,4.90
2023-03-16T10:20:20.011Z,5.70
2023-03-16T10:22:51.711Z,6.70
2023-03-16T10:25:34.897Z,7.00
2023-03-16T10:28:02.637Z,3.30
2023-03-16T10:30:35.485Z,2.50
2023-03-16T10:33:04.827Z,2.90
2023-03-16T10:35:42.171Z,8.00
2023-03-16T10:38:25.840Z,10.00
2023-03-16T10:40:57.450Z,6.40
2023-03-16T10:43:25.631Z,6.40
2023-03-16T10:48:27.779Z,2.90
2023-03-16T10:50:56.955Z,7.30
2023-03-16T10:53:29.358Z,4.40
2023-03-16T10:56:12.544Z,5.90
2023-03-16T10:58:42.047Z,6.90
2023-03-16T11:01:10.373Z,3.50
2023-03-16T11:03:40.935Z,6.40
2023-03-16T11:06:31.329Z,4.50
2023-03-16T11:09:04.564Z,5.40
2023-03-16T11:11:33.238Z,8.50
2023-03-16T11:14:01.298Z,2.90
2023-03-16T11:16:36.563Z,4.90
2023-03-16T11:19:12.359Z,3.00
2023-03-16T11:21:58.512Z,3.50
2023-03-16T11:24:34.051Z,7.50
2023-03-16T11:27:17.711Z,25.30
2023-03-16T11:29:58.776Z,7.30
2023-03-16T11:32:32.724Z,5.70
2023-03-16T11:35:03.913Z,3.40
2023-03-16T11:37:32.042Z,4.50
2023-03-16T11:40:16.442Z,7.20
2023-03-16T11:42:44.666Z,8.00
2023-03-16T11:45:13.137Z,5.60
2023-03-16T11:47:53.352Z,3.40
2023-03-16T11:50:25.254Z,6.00
2023-03-16T11:53:12.576Z,6.60
2023-03-16T11:55:40.428Z,4.70
2023-03-16T11:58:17.493Z,6.40
2023-03-16T12:01:00.210Z,6.30
2023-03-16T12:03:37.186Z,11.00
2023-03-16T12:06:26.776Z,4.40
2023-03-16T12:08:59.871Z,5.90
2023-03-16T12:16:26.163Z,5.70
2023-03-16T12:19:03.161Z,5.40
2023-03-16T12:21:35.868Z,6.10
2023-03-16T12:24:06.253Z,5.10
2023-03-16T12:26:39.374Z,6.70
2023-03-16T12:29:14.159Z,4.90
2023-03-16T12:31:50.249Z,10.40
2023-03-16T12:34:42.094Z,8.30
2023-03-16T12:37:15.749Z,10.50
2023-03-16T12:39:52.372Z,6.10
2023-03-16T12:42:35.105Z,7.00
2023-03-16T12:45:03.673Z,10.40
2023-03-16T12:47:37.369Z,14.70
2023-03-16T12:50:12.110Z,10.50
2023-03-16T12:52:46.248Z,5.60
2023-03-16T12:55:19.511Z,6.80
2023-03-16T12:57:57.865Z,8.80
2023-03-16T13:00:41.973Z,14.10
2023-03-16T13:03:14.934Z,9.30
2023-03-16T13:05:49.683Z,6.70
2023-03-16T13:08:19.870Z,7.20
2023-03-16T13:11:01.276Z,28.80
2023-03-16T13:13:28.763Z,5.30
2023-03-16T13:16:08.749Z,7.20
2023-03-16T13:18:43.980Z,7.20
2023-03-16T13:21:37.016Z,8.10
2023-03-16T13:24:25.095Z,12.40
2023-03-16T13:26:54.138Z,11.10
2023-03-16T13:29:24.987Z,6.30
2023-03-16T13:32:00.919Z,14.40
2023-03-16T13:34:32.633Z,6.80
2023-03-16T13:37:01.082Z,5.60
2023-03-16T13:39:31.709Z,6.40
2023-03-16T13:42:17.245Z,12.80
2023-03-16T13:44:45.382Z,5.00
2023-03-16T13:47:17.546Z,4.20
2023-03-16T13:49:54.472Z,4.00
2023-03-16T13:52:27.294Z,8.40
2023-03-16T13:55:15.426Z,7.40
2023-03-16T13:57:43.690Z,6.10
2023-03-16T14:00:17.436Z,7.10
2023-03-16T14:02:45.056Z,4.60
2023-03-16T14:05:17.958Z,6.40
2023-03-16T14:08:04.920Z,6.40
2023-03-16T14:10:42.431Z,8.60
2023-03-16T14:13:10.080Z,7.80
2023-03-16T14:15:40.236Z,8.50
2023-03-16T14:18:16.806Z,11.40
2023-03-16T14:20:44.127Z,20.00
2023-03-16T14:23:21.615Z,16.60
2023-03-16T14:25:49.018Z,14.60
2023-03-16T14:28:17.179Z,6.60
2023-03-16T14:30:54.804Z,5.30
2023-03-16T14:33:29.393Z,7.30
2023-03-16T14:36:06.953Z,7.60
2023-03-16T14:38:36.600Z,14.10
2023-03-16T14:41:11.846Z,10.90
2023-03-16T14:43:47.495Z,13.80
2023-03-16T14:46:17.215Z,7.90
2023-03-16T14:48:45.098Z,17.50
2023-03-16T14:51:23.481Z,11.40
2023-03-16T14:53:50.323Z,8.80
2023-03-16T14:56:17.269Z,7.50
2023-03-16T14:58:44.011Z,10.60
2023-03-16T15:01:15.599Z,11.10
2023-03-16T15:03:43.224Z,19.70
2023-03-16T15:06:13.344Z,6.20
2023-03-16T15:08:44.526Z,29.40
2023-03-16T15:11:11.366Z,40.70
2023-03-16T15:13:47.360Z,71.30
2023-03-16T15:16:14.253Z,103.90
2023-03-16T15:18:44.491Z,30.30
2023-03-16T15:21:20.188Z,8.50
2023-03-16T15:23:49.609Z,16.00
2023-03-16T15:26:36.733Z,11.40
2023-03-16T15:29:06.333Z,14.00
2023-03-16T15:31:33.149Z,10.70
2023-03-16T15:34:00.016Z,13.30
2023-03-16T15:36:26.785Z,6.80
2023-03-16T15:38:54.639Z,12.30
2023-03-16T15:41:22.489Z,8.80
2023-03-16T15:44:02.254Z,8.60
2023-03-16T15:46:28.828Z,10.50
2023-03-16T15:48:55.717Z,49.90
2023-03-16T15:51:26.992Z,20.30
2023-03-16T15:56:29.093Z,11.80
2023-03-16T15:58:57.036Z,15.20
2023-03-16T16:01:30.479Z,12.30
2023-03-16T16:03:57.502Z,14.80
2023-03-16T16:06:23.976Z,11.50
2023-03-16T16:08:50.450Z,31.40
2023-03-16T16:11:20.598Z,10.80
2023-03-16T16:13:47.825Z,15.10
2023-03-16T16:16:16.078Z,51.00
2023-03-16T16:18:42.931Z,69.10
2023-03-16T16:21:24.797Z,68.70
2023-03-16T16:24:03.282Z,101.50
2023-03-16T16:26:56.250Z,49.80
2023-03-16T16:29:26.112Z,53.40
2023-03-16T16:31:53.201Z,38.00
2023-03-16T16:34:21.291Z,27.70
2023-03-16T16:40:06.297Z,71.60
2023-03-16T16:42:34.476Z,45.50
2023-03-16T16:45:02.472Z,51.20
2023-03-16T16:47:31.126Z,57.20
2023-03-16T16:49:59.271Z,52.80
2023-03-16T16:52:28.265Z,50.90
2023-03-16T16:54:56.715Z,38.00
2023-03-16T16:57:25.814Z,27.30
2023-03-16T17:00:01.083Z,22.40
2023-03-16T17:16:28.108Z,167.80
2023-03-16T17:18:54.989Z,105.00
2023-03-16T17:21:24.609Z,124.50
2023-03-16T17:23:52.099Z,114.00
2023-03-16T17:26:25.146Z,96.60
2023-03-16T17:28:55.164Z,80.50
2023-03-16T17:31:30.317Z,90.40
2023-03-16T17:33:57.699Z,91.40
2023-03-16T17:36:24.605Z,112.80
2023-03-16T17:38:51.583Z,139.90
2023-03-16T17:41:22.197Z,132.90
2023-03-16T17:43:53.843Z,117.90
2023-03-16T17:46:22.754Z,120.70
2023-03-16T17:48:52.690Z,125.30
2023-03-16T17:51:20.534Z,90.30
2023-03-16T17:53:47.361Z,100.60
2023-03-16T17:56:24.752Z,86.10
2023-03-16T17:58:57.736Z,71.20
2023-03-16T18:01:29.403Z,87.10
2023-03-16T18:03:56.457Z,103.30
2023-03-16T18:06:25.657Z,84.90
2023-03-16T18:08:52.322Z,83.50
2023-03-16T18:11:27.982Z,88.10
2023-03-16T18:13:54.766Z,82.40
2023-03-16T18:16:27.209Z,83.50
2023-03-16T18:18:57.080Z,87.60
2023-03-16T18:21:25.028Z,101.40
2023-03-16T18:23:52.743Z,217.00
2023-03-16T18:26:23.553Z,169.30
2023-03-16T18:28:52.814Z,192.40
2023-03-16T18:31:25.170Z,76.40
2023-03-16T18:33:57.111Z,60.50
2023-03-16T18:36:49.450Z,57.60
2023-03-16T18:39:18.224Z,57.10
2023-03-16T18:41:46.257Z,55.70
2023-03-16T18:44:17.830Z,85.40
2023-03-16T18:46:45.510Z,72.20
2023-03-16T18:49:18.688Z,50.00
2023-03-16T18:51:47.482Z,53.00
2023-03-16T18:54:21.612Z,37.80
2023-03-16T18:56:49.118Z,30.10
2023-03-16T18:59:16.575Z,44.30
2023-03-16T19:01:44.146Z,42.60
2023-03-16T19:04:19.080Z,39.00
2023-03-16T19:06:52.704Z,45.90
2023-03-16T19:09:19.965Z,39.40
2023-03-16T19:11:46.840Z,39.40
2023-03-16T19:14:19.852Z,36.00
2023-03-16T19:16:46.852Z,61.10
2023-03-16T19:19:14.565Z,63.80
2023-03-16T19:21:42.422Z,69.00
2023-03-16T19:24:29.172Z,66.10
2023-03-16T19:26:56.253Z,43.90
2023-03-16T19:29:30.842Z,31.70
2023-03-16T19:31:58.085Z,28.20
2023-03-16T19:34:25.311Z,32.50
2023-03-16T19:36:52.432Z,25.80
2023-03-16T19:39:22.398Z,24.70
2023-03-16T19:41:53.835Z,35.50
2023-03-16T19:47:01.054Z,38.50
2023-03-16T19:54:52.966Z,37.90
2023-03-16T19:57:25.680Z,36.80
2023-03-16T20:00:28.175Z,45.90
2023-03-16T20:03:02.539Z,52.70
2023-03-16T20:05:39.404Z,39.70
2023-03-16T20:08:28.608Z,45.00
2023-03-16T20:10:59.050Z,45.20
2023-03-16T20:13:29.654Z,42.30
2023-03-16T20:15:56.921Z,43.30
2023-03-16T20:18:24.076Z,44.20
2023-03-16T20:20:54.728Z,51.40
2023-03-16T20:26:20.622Z,41.60
2023-03-16T20:28:50.458Z,37.40
2023-03-16T20:31:23.774Z,40.70
2023-03-16T20:33:52.565Z,53.80
2023-03-16T20:36:20.228Z,32.90
2023-03-16T20:38:48.406Z,42.00
2023-03-16T20:41:24.899Z,52.70
2023-03-16T20:43:52.572Z,41.70
2023-03-16T20:46:27.981Z,27.90
2023-03-16T20:48:56.431Z,37.10
2023-03-16T20:56:21.603Z,54.50
2023-03-16T20:58:57.522Z,42.10
2023-03-16T21:04:04.953Z,44.40
2023-03-16T21:06:43.453Z,55.30
2023-03-16T21:09:50.398Z,55.40
2023-03-16T21:12:44.722Z,50.20
2023-03-16T21:15:18.539Z,42.80
2023-03-16T21:17:49.058Z,34.80
2023-03-16T21:33:37.817Z,29.10
2023-03-16T21:36:08.459Z,25.00
2023-03-16T21:38:37.261Z,23.30
2023-03-16T21:41:07.584Z,28.10
2023-03-16T21:43:35.842Z,26.20
2023-03-16T21:46:04.524Z,25.70
2023-03-16T21:48:36.577Z,32.10
2023-03-16T21:51:15.150Z,27.90
2023-03-16T21:53:44.127Z,26.90
2023-03-16T21:56:16.168Z,25.80
2023-03-16T21:58:45.437Z,31.70
2023-03-16T22:01:23.289Z,29.20
2023-03-16T22:03:53.416Z,33.40
2023-03-16T22:06:23.069Z,27.60
2023-03-16T22:08:51.672Z,34.90
2023-03-16T22:11:22.642Z,31.20
2023-03-16T22:13:55.134Z,28.50
2023-03-16T22:16:24.784Z,31.80
2023-03-16T22:19:04.140Z,56.20
2023-03-16T22:21:34.662Z,50.30
2023-03-16T22:24:08.848Z,32.10
2023-03-16T22:26:38.815Z,32.10
2023-03-16T22:29:39.724Z,27.80
2023-03-16T22:32:25.753Z,26.40
2023-03-16T22:39:06.714Z,41.40
2023-03-16T22:42:25.991Z,24.40
2023-03-16T22:48:27.277Z,29.10
2023-03-16T22:51:14.092Z,37.90
2023-03-16T22:58:07.590Z,35.00
2023-03-16T23:01:22.275Z,33.70
2023-03-16T23:04:23.973Z,32.20
2023-03-16T23:07:52.305Z,28.80
2023-03-16T23:10:30.419Z,26.70
2023-03-16T23:13:04.933Z,28.40
2023-03-16T23:16:09.076Z,41.00
2023-03-16T23:18:42.557Z,37.70
2023-03-16T23:21:31.206Z,36.60
2023-03-16T23:24:09.423Z,32.60
2023-03-16T23:26:38.715Z,35.20
2023-03-16T23:29:08.737Z,29.30
2023-03-16T23:31:38.127Z,34.90
2023-03-16T23:34:15.934Z,35.00
2023-03-16T23:36:46.058Z,38.10
2023-03-16T23:39:15.392Z,38.20
2023-03-16T23:42:09.086Z,44.80
2023-03-16T23:44:36.390Z,40.20
2023-03-16T23:47:05.134Z,48.80
2023-03-16T23:49:34.195Z,51.90
2023-03-16T23:52:02.942Z,60.60
2023-03-16T23:54:32.139Z,68.60
2023-03-16T23:57:01.309Z,64.10
2023-03-16T23:59:30.020Z,63.20
